Wetterdaten: Woche 04.09.17 - 10.09.17 (KW36)
Datum Zeit Temp. A. Feuchte A. Luftdruck Regen Wind Richtung Taupunkt Windchill Windben
04.09.2017 00:00 13,1 C 75 % 1013,4 hPa 0,0 l/m 11,1 km/h N 8,7 C 10,5 C 26,9 km/h
04.09.2017 01:00 12,8 C 76 % 1013,8 hPa 0,0 l/m 8,9 km/h N 8,6 C 11,3 C 21,7 km/h
04.09.2017 02:00 12,5 C 77 % 1013,8 hPa 0,0 l/m 6,7 km/h N 8,6 C 12,2 C 22,1 km/h
04.09.2017 03:00 12,6 C 77 % 1013,6 hPa 0,0 l/m 6,2 km/h N 8,7 C 12,3 C 18,1 km/h
04.09.2017 04:00 12,6 C 76 % 1013,8 hPa 0,0 l/m 5,3 km/h N 8,5 C 12,6 C 18,1 km/h
04.09.2017 05:00 12,5 C 76 % 1013,9 hPa 0,0 l/m 4,3 km/h N 8,4 C 12,5 C 16,5 km/h
04.09.2017 06:00 12,6 C 75 % 1014,1 hPa 0,0 l/m 6,1 km/h N 8,2 C 12,4 C 19,3 km/h
04.09.2017 07:00 13,3 C 73 % 1014,3 hPa 0,0 l/m 6,3 km/h N 8,4 C 13,1 C 20,5 km/h
04.09.2017 08:00 14,3 C 70 % 1014,7 hPa 0,0 l/m 9,4 km/h N 8,8 C 12,6 C 24,1 km/h
04.09.2017 09:00 15,6 C 66 % 1015,3 hPa 0,0 l/m 7,9 km/h N 9,3 C 14,6 C 21,7 km/h
04.09.2017 10:00 17,0 C 61 % 1015,8 hPa 0,0 l/m 7,3 km/h N 9,5 C 16,5 C 20,9 km/h
04.09.2017 11:00 18,1 C 58 % 1016,1 hPa 0,0 l/m 8,6 km/h N 9,6 C 17,1 C 23,7 km/h
04.09.2017 12:00 18,7 C 52 % 1016,3 hPa 0,0 l/m 8,6 km/h N 8,6 C 17,8 C 20,5 km/h
04.09.2017 13:00 19,6 C 51 % 1016,3 hPa 0,0 l/m 4,3 km/h N 9,2 C 19,6 C 20,1 km/h
04.09.2017 14:00 19,8 C 48 % 1016,1 hPa 0,0 l/m 4,2 km/h N 8,6 C 19,8 C 18,1 km/h
04.09.2017 15:00 19,9 C 47 % 1016,1 hPa 0,0 l/m 5,7 km/h N 8,2 C 19,9 C 19,3 km/h
04.09.2017 16:00 19,9 C 46 % 1016,0 hPa 0,0 l/m 4,3 km/h N 7,9 C 19,9 C 19,3 km/h
04.09.2017 17:00 19,8 C 45 % 1016,0 hPa 0,0 l/m 4,4 km/h N 7,5 C 19,8 C 14,9 km/h
04.09.2017 18:00 19,4 C 46 % 1016,2 hPa 0,0 l/m 0,7 km/h N 7,4 C 19,4 C 9,2 km/h
04.09.2017 19:00 18,4 C 49 % 1016,4 hPa 0,0 l/m 0,1 km/h N 7,4 C 18,4 C 3,2 km/h
04.09.2017 20:00 17,0 C 55 % 1017,1 hPa 0,0 l/m 0,0 km/h N 7,8 C 17,0 C 0,0 km/h
04.09.2017 21:00 14,9 C 63 % 1017,7 hPa 0,0 l/m 0,0 km/h N 7,9 C 14,9 C 0,0 km/h
04.09.2017 22:00 13,4 C 67 % 1018,1 hPa 0,0 l/m 0,0 km/h N 7,4 C 13,4 C 0,0 km/h
04.09.2017 23:00 13,5 C 68 % 1018,4 hPa 0,0 l/m 0,0 km/h N 7,7 C 13,5 C 0,0 km/h
05.09.2017 00:00 12,7 C 71 % 1018,5 hPa 0,0 l/m 0,0 km/h N 7,6 C 12,7 C 0,0 km/h
05.09.2017 01:00 12,0 C 76 % 1018,8 hPa 0,0 l/m 0,0 km/h N 7,8 C 12,0 C 0,0 km/h
05.09.2017 02:00 11,4 C 78 % 1018,8 hPa 0,0 l/m 0,0 km/h N 7,7 C 11,4 C 0,0 km/h
05.09.2017 03:00 10,5 C 80 % 1018,7 hPa 0,0 l/m 0,0 km/h N 7,1 C 10,5 C 0,0 km/h
05.09.2017 04:00 10,0 C 81 % 1018,4 hPa 0,0 l/m 0,0 km/h N 6,9 C 10,0 C 0,0 km/h
05.09.2017 05:00 10,0 C 82 % 1018,5 hPa 0,0 l/m 0,0 km/h N 7,1 C 10,0 C 0,0 km/h
05.09.2017 06:00 9,7 C 82 % 1018,9 hPa 0,0 l/m 0,0 km/h N 6,8 C 9,7 C 0,0 km/h
05.09.2017 07:00 11,2 C 81 % 1019,2 hPa 0,0 l/m 0,6 km/h N 8,1 C 11,2 C 5,2 km/h
05.09.2017 08:00 15,7 C 68 % 1019,1 hPa 0,0 l/m 4,3 km/h N 9,8 C 15,6 C 14,9 km/h
05.09.2017 09:00 18,1 C 60 % 1019,1 hPa 0,0 l/m 5,4 km/h N 10,1 C 17,9 C 19,7 km/h
05.09.2017 10:00 19,4 C 57 % 1019,5 hPa 0,0 l/m 6,4 km/h N 10,7 C 19,2 C 19,7 km/h
05.09.2017 11:00 20,1 C 54 % 1019,4 hPa 0,0 l/m 6,7 km/h N 10,4 C 19,9 C 20,9 km/h
05.09.2017 12:00 21,2 C 52 % 1018,8 hPa 0,0 l/m 7,2 km/h N 10,9 C 20,7 C 24,6 km/h
05.09.2017 13:00 21,6 C 48 % 1018,4 hPa 0,0 l/m 9,4 km/h N 10,1 C 20,6 C 27,8 km/h
05.09.2017 14:00 22,3 C 47 % 1017,7 hPa 0,0 l/m 7,2 km/h N 10,5 C 21,8 C 22,9 km/h
05.09.2017 15:00 22,3 C 46 % 1017,2 hPa 0,0 l/m 8,7 km/h N 10,1 C 21,6 C 24,5 km/h
05.09.2017 16:00 22,2 C 48 % 1016,8 hPa 0,0 l/m 6,7 km/h N 10,6 C 22,0 C 23,3 km/h
05.09.2017 17:00 22,1 C 49 % 1016,6 hPa 0,0 l/m 5,9 km/h N 10,7 C 22,1 C 21,3 km/h
05.09.2017 18:00 21,5 C 52 % 1016,5 hPa 0,0 l/m 5,3 km/h N 11,1 C 21,4 C 19,7 km/h
05.09.2017 19:00 20,5 C 58 % 1016,5 hPa 0,0 l/m 2,8 km/h N 11,9 C 20,5 C 17,3 km/h
05.09.2017 20:00 19,4 C 64 % 1017,0 hPa 0,0 l/m 3,5 km/h N 12,2 C 19,4 C 19,3 km/h
05.09.2017 21:00 19,0 C 67 % 1017,1 hPa 0,0 l/m 7,1 km/h N 12,6 C 18,6 C 24,9 km/h
05.09.2017 22:00 18,7 C 68 % 1017,1 hPa 0,0 l/m 6,9 km/h N 12,7 C 18,5 C 19,7 km/h
05.09.2017 23:00 18,1 C 71 % 1017,2 hPa 0,0 l/m 3,4 km/h N 12,8 C 18,1 C 14,5 km/h
06.09.2017 00:00 17,5 C 73 % 1016,9 hPa 0,0 l/m 0,9 km/h N 12,6 C 17,5 C 6,8 km/h
06.09.2017 01:00 17,5 C 74 % 1016,7 hPa 0,0 l/m 2,4 km/h N 12,8 C 17,5 C 10,9 km/h
06.09.2017 02:00 17,7 C 73 % 1016,3 hPa 0,0 l/m 2,2 km/h N 12,8 C 17,7 C 11,3 km/h
06.09.2017 03:00 17,3 C 75 % 1016,1 hPa 0,0 l/m 1,2 km/h N 12,9 C 17,3 C 8,4 km/h
06.09.2017 04:00 16,4 C 76 % 1015,7 hPa 0,0 l/m 0,0 km/h N 12,1 C 16,4 C 0,8 km/h
06.09.2017 05:00 14,7 C 78 % 1015,5 hPa 0,0 l/m 0,0 km/h N 10,9 C 14,7 C 0,0 km/h
06.09.2017 06:00 13,4 C 81 % 1015,4 hPa 0,0 l/m 0,0 km/h N 10,1 C 13,4 C 0,0 km/h
06.09.2017 07:00 13,2 C 82 % 1015,4 hPa 0,0 l/m 0,0 km/h N 10,2 C 13,2 C 0,0 km/h
06.09.2017 08:00 14,6 C 82 % 1015,4 hPa 0,0 l/m 0,0 km/h N 11,5 C 14,6 C 0,0 km/h
06.09.2017 09:00 17,1 C 82 % 1015,0 hPa 0,0 l/m 0,0 km/h N 14,0 C 17,1 C 1,2 km/h
06.09.2017 10:00 19,9 C 76 % 1014,8 hPa 0,0 l/m 0,0 km/h N 15,6 C 19,9 C 2,4 km/h
06.09.2017 11:00 20,4 C 75 % 1014,3 hPa 0,0 l/m 0,1 km/h N 15,7 C 20,4 C 2,4 km/h
06.09.2017 12:00 20,9 C 71 % 1013,9 hPa 0,0 l/m 3,9 km/h N 15,4 C 20,8 C 14,9 km/h
06.09.2017 13:00 20,6 C 77 % 1013,3 hPa 0,0 l/m 2,8 km/h N 16,3 C 20,6 C 13,3 km/h
06.09.2017 14:00 22,7 C 68 % 1012,6 hPa 0,0 l/m 2,1 km/h N 16,3 C 22,7 C 15,7 km/h
06.09.2017 15:00 23,4 C 63 % 1012,0 hPa 0,0 l/m 4,2 km/h N 15,8 C 23,3 C 18,1 km/h
06.09.2017 16:00 22,5 C 65 % 1012,2 hPa 0,0 l/m 7,1 km/h N 15,5 C 22,1 C 28,6 km/h
06.09.2017 17:00 20,1 C 76 % 1012,5 hPa 0,0 l/m 5,2 km/h N 15,7 C 19,6 C 22,1 km/h
06.09.2017 18:00 19,7 C 74 % 1012,1 hPa 0,0 l/m 2,1 km/h N 14,9 C 19,7 C 12,0 km/h
06.09.2017 19:00 19,5 C 72 % 1012,0 hPa 0,0 l/m 6,5 km/h N 14,3 C 19,4 C 23,7 km/h
06.09.2017 20:00 19,6 C 71 % 1012,5 hPa 0,0 l/m 4,5 km/h N 14,2 C 19,6 C 20,5 km/h
06.09.2017 21:00 19,8 C 70 % 1012,3 hPa 0,0 l/m 3,4 km/h N 14,2 C 19,8 C 18,9 km/h
06.09.2017 22:00 19,6 C 69 % 1012,3 hPa 0,0 l/m 2,5 km/h N 13,8 C 19,6 C 16,5 km/h
06.09.2017 23:00 19,5 C 65 % 1012,2 hPa 0,0 l/m 4,6 km/h N 12,8 C 19,5 C 18,9 km/h
07.09.2017 00:00 19,0 C 67 % 1013,1 hPa 0,0 l/m 6,0 km/h N 12,8 C 18,9 C 20,9 km/h
07.09.2017 01:00 18,5 C 70 % 1013,6 hPa 0,0 l/m 5,3 km/h N 12,8 C 18,3 C 22,5 km/h
07.09.2017 02:00 17,7 C 71 % 1014,1 hPa 0,0 l/m 5,5 km/h N 12,3 C 17,4 C 20,5 km/h
07.09.2017 03:00 16,9 C 73 % 1014,2 hPa 0,0 l/m 4,2 km/h N 11,9 C 16,9 C 17,3 km/h
07.09.2017 04:00 16,7 C 69 % 1014,3 hPa 0,0 l/m 7,5 km/h N 10,9 C 16,1 C 24,1 km/h
07.09.2017 05:00 16,2 C 68 % 1014,4 hPa 0,0 l/m 8,7 km/h N 10,3 C 15,0 C 23,3 km/h
07.09.2017 06:00 15,7 C 68 % 1014,5 hPa 0,0 l/m 8,6 km/h N 9,8 C 14,6 C 25,8 km/h
07.09.2017 07:00 15,7 C 69 % 1014,8 hPa 0,0 l/m 6,1 km/h N 10,0 C 15,5 C 19,3 km/h
07.09.2017 08:00 15,9 C 70 % 1014,6 hPa 0,0 l/m 4,3 km/h N 10,4 C 15,9 C 19,3 km/h
07.09.2017 09:00 17,1 C 66 % 1014,7 hPa 0,0 l/m 9,5 km/h N 10,6 C 15,7 C 28,1 km/h
07.09.2017 10:00 18,1 C 60 % 1014,8 hPa 0,0 l/m 10,9 km/h N 10,1 C 16,3 C 35,4 km/h
07.09.2017 11:00 18,9 C 56 % 1014,9 hPa 0,0 l/m 12,1 km/h N 9,9 C 16,8 C 31,4 km/h
07.09.2017 12:00 19,6 C 52 % 1014,8 hPa 0,0 l/m 10,8 km/h N 9,3 C 17,9 C 30,6 km/h
07.09.2017 13:00 19,9 C 51 % 1014,8 hPa 0,0 l/m 7,3 km/h N 9,6 C 19,5 C 27,0 km/h
07.09.2017 14:00 19,5 C 51 % 1014,8 hPa 0,0 l/m 9,3 km/h N 9,0 C 18,3 C 27,3 km/h
07.09.2017 15:00 19,2 C 52 % 1014,7 hPa 0,0 l/m 9,1 km/h N 9,1 C 18,1 C 26,1 km/h
07.09.2017 16:00 19,2 C 52 % 1014,4 hPa 0,0 l/m 7,4 km/h N 9,0 C 18,6 C 23,7 km/h
07.09.2017 17:00 19,1 C 52 % 1014,4 hPa 0,0 l/m 6,5 km/h N 9,1 C 18,9 C 20,9 km/h
07.09.2017 18:00 18,8 C 52 % 1014,5 hPa 0,0 l/m 6,3 km/h N 8,6 C 18,6 C 20,9 km/h
07.09.2017 19:00 17,9 C 55 % 1014,7 hPa 0,0 l/m 0,7 km/h N 8,6 C 17,9 C 7,7 km/h
07.09.2017 20:00 16,2 C 60 % 1015,4 hPa 0,0 l/m 0,0 km/h N 8,4 C 16,2 C 0,0 km/h
07.09.2017 21:00 14,3 C 67 % 1015,8 hPa 0,0 l/m 0,0 km/h N 8,1 C 14,3 C 0,0 km/h
07.09.2017 22:00 13,7 C 70 % 1016,0 hPa 0,0 l/m 0,0 km/h N 8,4 C 13,7 C 0,0 km/h
07.09.2017 23:00 13,7 C 74 % 1016,1 hPa 0,0 l/m 0,1 km/h N 9,1 C 13,7 C 2,4 km/h
08.09.2017 00:00 13,5 C 73 % 1015,8 hPa 0,0 l/m 0,0 km/h N 8,7 C 13,5 C 0,0 km/h
08.09.2017 01:00 12,1 C 76 % 1015,8 hPa 0,0 l/m 0,0 km/h N 8,0 C 12,1 C 0,0 km/h
08.09.2017 02:00 11,1 C 79 % 1015,8 hPa 0,0 l/m 0,0 km/h N 7,6 C 11,1 C 0,4 km/h
08.09.2017 03:00 10,4 C 81 % 1015,9 hPa 0,0 l/m 0,0 km/h N 7,2 C 10,4 C 0,0 km/h
08.09.2017 04:00 9,9 C 82 % 1015,3 hPa 0,0 l/m 0,0 km/h N 6,9 C 9,9 C 0,0 km/h
08.09.2017 05:00 9,5 C 82 % 1015,1 hPa 0,0 l/m 0,0 km/h N 6,6 C 9,5 C 0,0 km/h
08.09.2017 06:00 8,9 C 83 % 1014,8 hPa 0,0 l/m 0,0 km/h N 6,2 C 8,9 C 0,4 km/h
08.09.2017 07:00 9,3 C 83 % 1015,2 hPa 0,0 l/m 0,0 km/h N 6,5 C 9,3 C 0,0 km/h
08.09.2017 08:00 11,1 C 82 % 1015,0 hPa 0,0 l/m 0,0 km/h N 8,1 C 11,1 C 0,4 km/h
08.09.2017 09:00 14,0 C 80 % 1014,9 hPa 0,0 l/m 0,1 km/h N 10,6 C 14,0 C 2,8 km/h
08.09.2017 10:00 19,4 C 60 % 1014,8 hPa 0,0 l/m 0,5 km/h N 11,3 C 19,4 C 6,0 km/h
08.09.2017 11:00 21,9 C 52 % 1013,7 hPa 0,0 l/m 1,9 km/h N 11,4 C 21,9 C 9,7 km/h
08.09.2017 12:00 23,6 C 47 % 1012,5 hPa 0,0 l/m 2,0 km/h N 11,5 C 23,6 C 12,1 km/h
08.09.2017 13:00 24,9 C 41 % 1011,6 hPa 0,0 l/m 2,4 km/h N 10,8 C 24,9 C 11,7 km/h
08.09.2017 14:00 24,6 C 41 % 1011,0 hPa 0,0 l/m 3,3 km/h N 10,4 C 24,6 C 18,1 km/h
08.09.2017 15:00 24,3 C 41 % 1010,1 hPa 0,0 l/m 3,8 km/h N 10,2 C 24,3 C 18,5 km/h
08.09.2017 16:00 23,5 C 40 % 1009,7 hPa 0,0 l/m 4,5 km/h N 9,0 C 23,5 C 18,1 km/h
08.09.2017 17:00 22,5 C 44 % 1009,4 hPa 0,0 l/m 5,2 km/h N 9,6 C 22,5 C 19,3 km/h
08.09.2017 18:00 21,3 C 50 % 1009,2 hPa 0,0 l/m 4,0 km/h N 10,5 C 21,3 C 12,9 km/h
08.09.2017 19:00 19,8 C 55 % 1008,8 hPa 0,0 l/m 0,8 km/h N 10,4 C 19,8 C 9,6 km/h
08.09.2017 20:00 18,4 C 60 % 1009,0 hPa 0,0 l/m 0,8 km/h N 10,4 C 18,4 C 6,0 km/h
08.09.2017 21:00 17,2 C 65 % 1008,5 hPa 0,0 l/m 1,3 km/h N 10,6 C 17,2 C 7,2 km/h
08.09.2017 22:00 16,4 C 69 % 1008,1 hPa 0,0 l/m 1,1 km/h N 10,6 C 16,4 C 7,2 km/h
08.09.2017 23:00 15,6 C 72 % 1007,8 hPa 0,0 l/m 0,2 km/h N 10,6 C 15,6 C 4,0 km/h
09.09.2017 00:00 14,9 C 75 % 1007,3 hPa 0,0 l/m 0,3 km/h N 10,5 C 14,9 C 3,6 km/h
09.09.2017 01:00 14,3 C 77 % 1006,7 hPa 0,0 l/m 0,0 km/h N 10,3 C 14,3 C 1,6 km/h
09.09.2017 02:00 12,8 C 78 % 1006,2 hPa 0,0 l/m 0,0 km/h N 8,9 C 12,8 C 0,0 km/h
09.09.2017 03:00 11,2 C 81 % 1005,8 hPa 0,0 l/m 0,0 km/h N 8,0 C 11,2 C 0,4 km/h
09.09.2017 04:00 10,3 C 82 % 1005,4 hPa 0,0 l/m 0,0 km/h N 7,3 C 10,3 C 0,0 km/h
09.09.2017 05:00 9,4 C 82 % 1005,1 hPa 0,0 l/m 0,0 km/h N 6,6 C 9,4 C 0,0 km/h
09.09.2017 06:00 9,0 C 83 % 1004,8 hPa 0,0 l/m 0,0 km/h N 6,2 C 9,0 C 0,0 km/h
09.09.2017 07:00 9,9 C 83 % 1004,5 hPa 0,0 l/m 0,0 km/h N 7,1 C 9,9 C 0,0 km/h
09.09.2017 08:00 12,2 C 83 % 1004,3 hPa 0,0 l/m 0,2 km/h N 9,4 C 12,2 C 3,6 km/h
09.09.2017 09:00 13,9 C 83 % 1003,9 hPa 0,0 l/m 0,2 km/h N 11,0 C 13,9 C 4,4 km/h
09.09.2017 10:00 17,6 C 78 % 1003,2 hPa 0,0 l/m 0,2 km/h N 13,7 C 17,6 C 4,4 km/h
09.09.2017 11:00 21,7 C 63 % 1001,9 hPa 0,0 l/m 1,4 km/h N 14,3 C 21,7 C 9,3 km/h
09.09.2017 12:00 24,8 C 52 % 1000,9 hPa 0,0 l/m 3,0 km/h N 14,2 C 24,8 C 14,1 km/h
09.09.2017 13:00 26,0 C 48 % 1000,3 hPa 0,0 l/m 3,1 km/h N 14,0 C 26,0 C 12,5 km/h
09.09.2017 14:00 26,3 C 47 % 1000,1 hPa 0,0 l/m 4,0 km/h N 14,0 C 26,3 C 18,5 km/h
09.09.2017 15:00 26,0 C 49 % 999,8 hPa 0,0 l/m 4,0 km/h N 14,3 C 26,0 C 19,7 km/h
09.09.2017 16:00 25,9 C 49 % 999,7 hPa 0,0 l/m 3,4 km/h N 14,3 C 25,9 C 15,7 km/h
09.09.2017 17:00 25,5 C 50 % 999,7 hPa 0,0 l/m 3,5 km/h N 14,2 C 25,5 C 15,3 km/h
09.09.2017 18:00 24,7 C 52 % 999,7 hPa 0,0 l/m 2,0 km/h N 14,2 C 24,7 C 9,3 km/h
09.09.2017 19:00 23,5 C 56 % 999,5 hPa 0,0 l/m 0,3 km/h N 14,1 C 23,5 C 3,2 km/h
09.09.2017 20:00 20,8 C 63 % 1000,1 hPa 0,0 l/m 0,0 km/h N 13,5 C 20,8 C 0,4 km/h
09.09.2017 21:00 18,3 C 71 % 1000,5 hPa 0,0 l/m 0,0 km/h N 12,9 C 18,3 C 0,0 km/h
09.09.2017 22:00 16,9 C 76 % 1000,6 hPa 0,0 l/m 0,0 km/h N 12,7 C 16,9 C 0,0 km/h
09.09.2017 23:00 16,7 C 77 % 1001,1 hPa 0,0 l/m 0,0 km/h N 12,7 C 16,7 C 1,6 km/h
10.09.2017 00:00 17,1 C 75 % 1001,3 hPa 0,0 l/m 0,1 km/h N 12,7 C 17,1 C 2,4 km/h
10.09.2017 01:00 16,4 C 76 % 1001,6 hPa 0,0 l/m 0,1 km/h N 12,2 C 16,4 C 2,8 km/h
10.09.2017 02:00 16,0 C 76 % 1001,6 hPa 0,0 l/m 0,0 km/h N 11,8 C 16,0 C 1,6 km/h
10.09.2017 03:00 15,3 C 77 % 1002,2 hPa 0,0 l/m 0,0 km/h N 11,3 C 15,3 C 0,8 km/h
10.09.2017 04:00 14,5 C 79 % 1002,3 hPa 0,0 l/m 0,0 km/h N 10,8 C 14,5 C 0,0 km/h
10.09.2017 05:00 14,1 C 80 % 1002,2 hPa 0,0 l/m 0,2 km/h N 10,6 C 14,1 C 2,0 km/h
10.09.2017 06:00 14,2 C 79 % 1002,8 hPa 0,0 l/m 0,0 km/h N 10,7 C 14,2 C 0,4 km/h
10.09.2017 07:00 14,4 C 80 % 1003,4 hPa 0,0 l/m 0,0 km/h N 11,0 C 14,4 C 0,0 km/h
10.09.2017 08:00 15,1 C 81 % 1003,7 hPa 0,0 l/m 0,0 km/h N 11,9 C 15,1 C 0,4 km/h
10.09.2017 09:00 16,6 C 77 % 1004,4 hPa 0,0 l/m 0,0 km/h N 12,6 C 16,6 C 2,0 km/h
10.09.2017 10:00 18,6 C 70 % 1004,9 hPa 0,0 l/m 3,0 km/h N 12,9 C 18,6 C 12,5 km/h
10.09.2017 11:00 19,1 C 69 % 1005,5 hPa 0,0 l/m 3,5 km/h N 13,1 C 19,1 C 14,1 km/h
10.09.2017 12:00 19,6 C 66 % 1005,6 hPa 0,0 l/m 2,1 km/h N 13,1 C 19,6 C 11,7 km/h
10.09.2017 13:00 19,4 C 67 % 1006,0 hPa 0,0 l/m 2,6 km/h N 13,1 C 19,4 C 12,5 km/h
10.09.2017 14:00 19,9 C 66 % 1006,2 hPa 0,0 l/m 1,5 km/h N 13,4 C 19,9 C 8,9 km/h
10.09.2017 15:00 19,6 C 67 % 1006,2 hPa 0,0 l/m 0,3 km/h N 13,2 C 19,6 C 4,0 km/h
10.09.2017 16:00 19,2 C 68 % 1006,1 hPa 0,0 l/m 0,5 km/h N 13,1 C 19,2 C 7,2 km/h
10.09.2017 17:00 18,6 C 69 % 1006,1 hPa 0,0 l/m 2,0 km/h N 12,9 C 18,6 C 8,9 km/h
10.09.2017 18:00 18,4 C 71 % 1005,8 hPa 0,0 l/m 0,8 km/h N 13,0 C 18,4 C 4,8 km/h
10.09.2017 19:00 17,8 C 73 % 1005,8 hPa 0,0 l/m 1,1 km/h N 12,9 C 17,8 C 6,8 km/h
10.09.2017 20:00 17,2 C 75 % 1005,8 hPa 0,0 l/m 0,0 km/h N 12,7 C 17,2 C 0,4 km/h
10.09.2017 21:00 16,7 C 77 % 1006,1 hPa 0,0 l/m 0,1 km/h N 12,7 C 16,7 C 1,6 km/h
10.09.2017 22:00 16,8 C 76 % 1006,3 hPa 0,0 l/m 0,4 km/h N 12,5 C 16,8 C 4,8 km/h
10.09.2017 23:00 16,4 C 77 % 1006,3 hPa 0,5 l/m 2,6 km/h N 12,3 C 16,4 C 11,3 km/h
Min-Datum _ 09.09.17 08.09.17 09.09.17 - 04.09.17 - 08.09.17 08.09.17 04.09.17
_ Min-Zeit 06:45 16:15 19:00 - 19:30 - 06:00 06:15 20:00
Minimum _ 8,8 C 39 % 999,4 hPa - 0,0 km/h - 6,1 C 8,9 C 0,0 km/h
Max-Datum _ 09.09.17 08.09.17 05.09.17 10.09.17 07.09.17 - 06.09.17 09.09.17 07.09.17
_ Max-Zeit 14:15 06:15 10:45 23:45 11:15 - 13:45 14:15 10:45
Maximum _ 26,4 C 83 % 1019,6 hPa 0,5 l/m 15,3 km/h
N
- 17,2 C 26,4 C 43,5 km/h
N
Durchschnitt _ 17,3 C 67 % 1011,7 hPa #0,5 l/m 3,0 km/h N 10,7 C 17,1 C 11,2 km/h